Meteo Giornale » Osservazioni meteo Stati Uniti (USA) » Tyler Tyler Pounds Fld
ore: 04:53 - Osservazioni Meteo Tyler Tyler Pounds Fld
Lat. 32° 21' N Lon. 95° 24' W Alt. 165 metri s.l.m.
26 °C
Sereno
Temp. 24 Ore
25 °C
38 °C
Sud-Est
7.4 Km/h
Dew point 20 °C
Umidità 69 %
Visibilità 10 Km
Il sole sorge alle ore 06:56
Il sole tramonta alle ore 19:46
| Data e Ora | Cielo e Fenomeni | T °C | DP °C | Um. % | Pres. hPa | Vis. km | Vento km/h | |
|---|---|---|---|---|---|---|---|---|
| Oggi h: 04:53 | Sereno | 26 | 20 | 69 | 1016 | 10 | SE 7.4 | |
| Oggi h: 03:53 | Sereno | 26 | 20 | 69 | 1017 | 10 | S/SE 7.4 | |
| Oggi h: 02:53 | Sereno | 27 | 19 | 61 | 1017 | 10 | N 0 | |
| Oggi h: 01:53 | Sereno | 29 | 19 | 54 | 1016 | 10 | S/SE 14.8 | |
| Oggi h: 00:53 | Sereno | 30 | 19 | 51 | 1016 | 10 | S/SE 14.8 | |
| Ieri h: 23:53 | Sereno | 31 | 19 | 48 | 1016 | 10 | SE 13 | |
| Ieri h: 22:53 | Sereno | 32 | 19 | 46 | 1015 | 10 | E/SE 14.8 | |
| Ieri h: 21:53 | Sereno | 33 | 18 | 41 | 1015 | 10 | E/SE 16.7 | |
| Ieri h: 20:53 | Sereno | 33 | 18 | 41 | 1014 | 10 | E/SE 13 | |
| Ieri h: 19:53 | Sereno | 35 | 17 | 34 | 1014 | 10 | E/SE 13 | |
| Ieri h: 18:53 | Sereno | 37 | 15 | 27 | 1014 | 10 | E/SE 14.8 | |
| Ieri h: 17:53 | Poco Nuvoloso | 38 | 14 | 24 | 1014 | 10 | E 16.7 | |
| Ieri h: 16:53 | Sereno | 38 | 14 | 24 | 1014 | 10 | N 0 | |
| Ieri h: 15:53 | Nuvoloso | 38 | 15 | 25 | 1015 | 10 | E 9.3 | |
| Ieri h: 14:53 | Sereno | 38 | 15 | 25 | 1016 | 10 | N 9.3 | |
| Ieri h: 13:53 | Nuvoloso | 37 | 17 | 30 | 1016 | 10 | E/SE 14.8 | |
| Ieri h: 12:53 | Sereno | 37 | 18 | 32 | 1017 | 10 | N 0 | |
| Ieri h: 11:53 | Sereno | 34 | 19 | 41 | 1018 | 10 | S/SE 9.3 | |
| Ieri h: 10:53 | Sereno | 33 | 19 | 43 | 1018 | 10 | N 0 | |
| Ieri h: 09:53 | Sereno | 31 | 21 | 55 | 1018 | 10 | S 7.4 | |
| Ieri h: 08:53 | Sereno | 29 | 22 | 66 | 1018 | 10 | S/SO 13 | |
| Ieri h: 07:53 | Sereno | 27 | 21 | 69 | 1017 | 10 | N 0 | |
| Ieri h: 06:53 | Sereno | 25 | 19 | 69 | 1016 | 10 | S 7.4 | |
| Ieri h: 05:53 | Sereno | 25 | 19 | 69 | 1016 | 10 | N 0 | |



